Airport ICAO


19:07 UTC

8°C

Few clouds


An affordable passengers' Moving Map for your aircraft. Made for the iPad and the iPhone
More information here

EGKK Gatwick


London UNITED KINGDOM   VFR


METAR EGKK 231850Z 08004KT 9999 FEW034 08/05 Q1032 0h17min

TAF EGKK 231700Z 2318/2424 08006KT 9999 SCT040 PROB30 2400/2407 8000 BECMG 2408/2411 32010KT 2h07min





NOTAMS

OPEN